CPX967 Details

Departure: Travis Air Force Base (KSUU)
Arrival: Seattle-Tacoma International Airport (KSEA) at N/A
Route: WAPEX RBL J65 LMT HAWKZ7
Notes: EMPTY | NON-REVENUE REPOSITIONING LEG


Current Weather Information
KSUU 231358Z AUTO 00000KT 10SM CLR 12/07 A3002 RMK AO2 SLP172 T01160073 $
KSEA 231403Z 03006KT 1/2SM R16L/3500VP6000FT FG OVC001 08/06 A3049 RMK AO2 TWR VIS 10 T00830061 $